createdAt,value
2023-02-11T00:01:30.765Z,37.14
2023-02-11T00:04:16.457Z,37.20
2023-02-11T00:07:02.165Z,36.90
2023-02-11T00:09:47.680Z,36.92
2023-02-11T00:12:32.891Z,36.58
2023-02-11T00:15:18.156Z,36.62
2023-02-11T00:18:03.527Z,36.46
2023-02-11T00:20:48.860Z,36.44
2023-02-11T00:23:34.390Z,36.35
2023-02-11T00:26:22.885Z,36.49
2023-02-11T00:29:08.138Z,36.59
2023-02-11T00:31:53.547Z,36.68
2023-02-11T00:34:38.665Z,36.83
2023-02-11T00:37:24.584Z,36.78
2023-02-11T00:40:10.445Z,36.85
2023-02-11T00:42:55.668Z,37.08
2023-02-11T00:45:43.089Z,37.28
2023-02-11T00:48:28.518Z,37.14
2023-02-11T00:51:13.897Z,37.31
2023-02-11T00:53:59.197Z,37.20
2023-02-11T00:56:44.407Z,37.11
2023-02-11T00:59:29.849Z,36.88
2023-02-11T01:02:15.089Z,36.86
2023-02-11T01:05:01.687Z,36.68
2023-02-11T01:07:47.049Z,36.57
2023-02-11T01:10:32.558Z,36.41
2023-02-11T01:13:18.253Z,36.30
2023-02-11T01:16:07.717Z,36.47
2023-02-11T01:18:53.144Z,36.21
2023-02-11T01:21:39.154Z,36.23
2023-02-11T01:24:24.370Z,36.36
2023-02-11T01:27:09.706Z,36.22
2023-02-11T01:29:54.968Z,36.00
2023-02-11T01:32:40.523Z,36.06
2023-02-11T01:35:26.985Z,36.32
2023-02-11T01:38:33.056Z,36.19
2023-02-11T01:41:18.421Z,36.47
2023-02-11T02:47:35.976Z,36.60
2023-02-11T02:50:30.216Z,36.59
2023-02-11T02:53:27.951Z,36.67
2023-02-11T02:56:25.981Z,36.88
2023-02-11T02:59:11.252Z,37.03
2023-02-11T03:02:22.209Z,37.03
2023-02-11T03:05:21.365Z,37.04
2023-02-11T03:08:12.676Z,36.75
2023-02-11T03:11:00.595Z,36.82
2023-02-11T03:13:47.519Z,36.93
2023-02-11T03:16:39.116Z,37.01
2023-02-11T03:19:30.538Z,36.96
2023-02-11T03:22:41.149Z,36.99
2023-02-11T03:25:31.966Z,36.94
2023-02-11T03:28:35.544Z,36.89
2023-02-11T03:31:25.959Z,37.05
2023-02-11T03:34:40.192Z,36.61
2023-02-11T03:37:36.915Z,37.40
2023-02-11T03:40:25.957Z,36.90
2023-02-11T03:43:25.177Z,36.63
2023-02-11T03:46:12.500Z,36.34
2023-02-11T03:49:04.118Z,36.24
2023-02-11T03:51:53.008Z,36.15
2023-02-11T03:54:42.147Z,36.30
2023-02-11T03:57:27.441Z,36.25
2023-02-11T04:00:13.477Z,36.20
2023-02-11T04:02:58.778Z,36.14
2023-02-11T04:05:43.975Z,36.30
2023-02-11T04:08:29.331Z,36.50
2023-02-11T04:11:14.627Z,36.74
2023-02-11T04:13:59.920Z,36.87
2023-02-11T04:16:45.699Z,37.00
2023-02-11T04:19:30.814Z,36.64
2023-02-11T04:22:16.231Z,36.70
2023-02-11T04:25:01.568Z,36.56
2023-02-11T04:27:47.010Z,36.52
2023-02-11T04:30:32.170Z,36.45
2023-02-11T04:33:17.648Z,36.74
2023-02-11T04:36:02.827Z,36.42
2023-02-11T04:38:48.439Z,36.37
2023-02-11T04:41:34.263Z,36.48
2023-02-11T04:44:19.550Z,36.30
2023-02-11T04:47:05.063Z,36.34
2023-02-11T04:49:50.147Z,36.21
2023-02-11T04:52:35.476Z,35.95
2023-02-11T04:55:20.775Z,36.15
2023-02-11T04:58:06.004Z,36.13
2023-02-11T05:00:51.685Z,36.00
2023-02-11T05:03:37.363Z,35.84
2023-02-11T05:06:23.067Z,35.99
2023-02-11T05:09:09.749Z,35.94
2023-02-11T05:11:55.492Z,36.03
2023-02-11T05:14:41.008Z,35.96
2023-02-11T05:17:26.421Z,35.90
2023-02-11T05:20:11.987Z,35.93
2023-02-11T05:22:57.523Z,36.14
2023-02-11T05:25:42.961Z,36.13
2023-02-11T05:28:28.574Z,36.22
2023-02-11T05:31:14.864Z,36.15
2023-02-11T05:34:00.368Z,36.18
2023-02-11T05:36:45.700Z,36.22
2023-02-11T05:39:31.085Z,36.39
2023-02-11T05:42:16.417Z,36.27
2023-02-11T05:45:01.596Z,36.12
2023-02-11T05:47:46.977Z,36.12
2023-02-11T05:50:32.117Z,36.27
2023-02-11T05:53:17.394Z,36.30
2023-02-11T05:56:04.336Z,36.06
2023-02-11T05:58:49.598Z,36.01
2023-02-11T06:01:35.405Z,36.03
2023-02-11T06:04:20.459Z,36.21
2023-02-11T06:07:05.852Z,35.95
2023-02-11T06:09:51.877Z,36.03
2023-02-11T06:12:38.198Z,35.79
2023-02-11T06:15:24.063Z,35.90
2023-02-11T06:18:09.794Z,35.81
2023-02-11T06:20:56.085Z,36.00
2023-02-11T06:23:44.904Z,35.97
2023-02-11T06:26:30.935Z,35.81
2023-02-11T06:29:16.514Z,35.86
2023-02-11T06:32:02.283Z,36.04
2023-02-11T06:34:47.796Z,36.04
2023-02-11T06:37:34.682Z,36.17
2023-02-11T06:40:20.625Z,36.21
2023-02-11T06:43:05.911Z,36.44
2023-02-11T06:45:55.282Z,37.08
2023-02-11T06:48:44.493Z,37.46
2023-02-11T06:51:30.334Z,37.69
2023-02-11T06:54:15.720Z,38.04
2023-02-11T06:57:01.603Z,39.07
2023-02-11T06:59:47.452Z,38.24
2023-02-11T07:02:32.864Z,37.31
2023-02-11T07:05:18.190Z,37.46
2023-02-11T07:08:03.270Z,37.05
2023-02-11T07:10:49.045Z,38.34
2023-02-11T07:13:34.565Z,38.44
2023-02-11T07:16:20.759Z,38.37
2023-02-11T07:19:05.970Z,38.17
2023-02-11T07:21:51.287Z,38.00
2023-02-11T07:24:36.609Z,37.97
2023-02-11T07:27:21.791Z,37.89
2023-02-11T07:30:07.825Z,37.96
2023-02-11T07:32:53.781Z,37.92
2023-02-11T07:35:41.652Z,38.30
2023-02-11T07:38:28.263Z,38.18
2023-02-11T07:41:16.387Z,38.15
2023-02-11T07:44:03.644Z,38.58
2023-02-11T07:46:49.369Z,38.87
2023-02-11T07:49:34.956Z,39.24
2023-02-11T07:52:20.390Z,39.56
2023-02-11T07:55:07.725Z,39.95
2023-02-11T07:57:53.271Z,39.94
2023-02-11T08:00:38.608Z,40.25
2023-02-11T08:03:24.183Z,39.99
2023-02-11T08:06:14.695Z,40.33
2023-02-11T08:09:06.328Z,40.67
2023-02-11T08:11:51.870Z,40.80
2023-02-11T08:14:37.728Z,40.60
2023-02-11T08:17:22.839Z,41.00
2023-02-11T08:20:08.459Z,41.05
2023-02-11T08:22:54.015Z,41.02
2023-02-11T08:25:40.079Z,40.35
2023-02-11T08:28:25.767Z,40.95
2023-02-11T08:31:14.203Z,41.16
2023-02-11T08:33:59.905Z,41.28
2023-02-11T08:36:46.455Z,41.13
2023-02-11T08:39:31.958Z,41.25
2023-02-11T08:42:17.164Z,41.22
2023-02-11T08:45:02.559Z,40.98
2023-02-11T08:47:47.854Z,40.66
2023-02-11T08:50:33.360Z,40.29
2023-02-11T08:53:18.582Z,40.11
2023-02-11T08:56:04.107Z,40.23
2023-02-11T08:58:50.232Z,40.00
2023-02-11T09:01:35.704Z,39.94
2023-02-11T09:04:21.645Z,39.96
2023-02-11T09:07:07.527Z,40.14
2023-02-11T09:09:53.005Z,39.96
2023-02-11T09:12:38.943Z,40.08
2023-02-11T09:15:24.414Z,40.19
2023-02-11T09:18:09.859Z,40.00
2023-02-11T09:21:03.889Z,40.13
2023-02-11T09:23:50.031Z,40.54
2023-02-11T09:26:36.964Z,40.53
2023-02-11T09:29:22.775Z,40.58
2023-02-11T09:32:10.024Z,40.56
2023-02-11T09:34:55.979Z,40.73
2023-02-11T09:37:41.369Z,40.86
2023-02-11T09:40:26.894Z,40.96
2023-02-11T09:43:19.382Z,40.95
2023-02-11T09:46:05.762Z,40.93
2023-02-11T09:48:54.705Z,41.05
2023-02-11T09:51:58.032Z,41.02
2023-02-11T09:55:02.269Z,41.32
2023-02-11T09:57:47.822Z,41.42
2023-02-11T10:00:53.110Z,40.93
2023-02-11T10:03:59.732Z,40.75
2023-02-11T10:06:58.543Z,40.75
2023-02-11T10:10:03.162Z,40.78
2023-02-11T10:13:06.943Z,40.92
2023-02-11T10:16:15.283Z,40.93
2023-02-11T10:19:13.937Z,41.03
2023-02-11T10:22:05.449Z,41.28
2023-02-11T10:24:58.487Z,41.48
2023-02-11T10:27:43.873Z,41.32
2023-02-11T10:30:41.282Z,41.71
2023-02-11T10:33:59.336Z,42.11
2023-02-11T10:36:45.721Z,42.50
2023-02-11T10:39:35.234Z,42.78
2023-02-11T10:42:20.828Z,42.90
2023-02-11T10:45:07.347Z,43.09
2023-02-11T10:47:52.952Z,43.35
2023-02-11T10:50:38.603Z,43.42
2023-02-11T10:53:24.480Z,43.57
2023-02-11T10:56:22.262Z,43.73
2023-02-11T10:59:21.605Z,43.58
2023-02-11T11:02:35.335Z,43.84
2023-02-11T11:05:32.145Z,43.79
2023-02-11T11:08:21.095Z,44.05
2023-02-11T11:11:09.652Z,44.19
2023-02-11T11:14:03.309Z,44.09
2023-02-11T11:16:54.980Z,44.15
2023-02-11T11:19:40.396Z,44.41
2023-02-11T11:22:25.785Z,44.63
2023-02-11T11:25:46.008Z,44.46
2023-02-11T11:28:38.734Z,44.77
2023-02-11T11:31:37.072Z,44.91
2023-02-11T11:34:30.436Z,45.09
2023-02-11T11:37:34.899Z,45.19
2023-02-11T11:40:36.420Z,45.43
2023-02-11T11:43:23.321Z,45.38
2023-02-11T11:46:12.196Z,45.56
2023-02-11T11:49:14.826Z,45.27
2023-02-11T11:52:23.990Z,45.88
2023-02-11T11:55:18.080Z,45.30
2023-02-11T11:58:04.870Z,46.72
2023-02-11T12:00:53.598Z,46.71
2023-02-11T12:04:08.201Z,46.58
2023-02-11T12:07:25.888Z,46.71
2023-02-11T12:10:37.105Z,46.65
2023-02-11T12:13:46.165Z,46.75
2023-02-11T12:16:43.734Z,46.17
2023-02-11T12:19:56.349Z,46.61
2023-02-11T12:23:16.431Z,46.93
2023-02-11T12:26:17.014Z,47.63
2023-02-11T12:29:08.569Z,47.61
2023-02-11T12:32:09.335Z,49.27
2023-02-11T12:35:17.009Z,49.72
2023-02-11T12:38:18.796Z,47.92
2023-02-11T12:41:16.634Z,46.96
2023-02-11T12:44:02.527Z,46.41
2023-02-11T12:47:14.150Z,46.83
2023-02-11T12:50:26.257Z,46.58
2023-02-11T12:53:35.925Z,46.54
2023-02-11T12:56:29.473Z,46.58
2023-02-11T12:59:41.092Z,46.28
2023-02-11T13:02:44.737Z,46.03
2023-02-11T13:05:30.079Z,46.18
2023-02-11T13:08:31.153Z,46.62
2023-02-11T13:11:19.354Z,47.18
2023-02-11T13:14:15.628Z,47.12
2023-02-11T13:17:04.216Z,47.32
2023-02-11T13:19:59.979Z,47.56
2023-02-11T13:22:57.270Z,47.96
2023-02-11T13:25:51.495Z,47.70
2023-02-11T13:28:42.730Z,47.67
2023-02-11T13:31:31.083Z,47.37
2023-02-11T13:34:53.894Z,47.75
2023-02-11T13:37:39.883Z,47.77
2023-02-11T13:40:36.957Z,47.86
2023-02-11T13:43:25.539Z,47.94
2023-02-11T13:46:13.418Z,48.06
2023-02-11T13:48:59.514Z,47.88
2023-02-11T13:51:45.083Z,47.78
2023-02-11T13:54:46.464Z,47.68
2023-02-11T13:57:37.872Z,47.81
2023-02-11T14:00:35.476Z,47.49
2023-02-11T14:03:48.498Z,47.65
2023-02-11T14:07:06.112Z,46.98
2023-02-11T14:09:57.020Z,46.23
2023-02-11T14:12:42.757Z,46.04
2023-02-11T14:15:40.085Z,46.35
2023-02-11T14:18:39.881Z,46.35
2023-02-11T14:21:29.695Z,46.53
2023-02-11T14:24:15.230Z,46.48
2023-02-11T14:27:30.219Z,46.42
2023-02-11T14:30:46.510Z,46.43
2023-02-11T14:33:59.571Z,46.66
2023-02-11T14:37:14.807Z,46.91
2023-02-11T14:40:29.290Z,46.81
2023-02-11T14:43:29.096Z,46.78
2023-02-11T14:46:20.800Z,46.82
2023-02-11T14:49:08.396Z,46.77
2023-02-11T14:51:58.026Z,46.77
2023-02-11T14:54:45.339Z,47.07
2023-02-11T14:57:31.201Z,46.96
2023-02-11T15:00:23.007Z,46.94
2023-02-11T15:03:30.832Z,46.98
2023-02-11T15:06:25.161Z,47.01
2023-02-11T15:09:37.627Z,46.88
2023-02-11T15:12:26.995Z,46.88
2023-02-11T15:15:14.618Z,46.78
2023-02-11T15:18:02.895Z,46.71
2023-02-11T15:20:50.904Z,46.75
2023-02-11T15:23:37.617Z,46.48
2023-02-11T15:26:23.857Z,46.59
2023-02-11T15:29:17.327Z,46.57
2023-02-11T15:32:17.285Z,46.51
2023-02-11T15:35:11.551Z,46.88
2023-02-11T15:38:01.289Z,46.78
2023-02-11T15:40:57.146Z,46.82
2023-02-11T15:43:48.768Z,46.53
2023-02-11T15:46:39.639Z,46.67
2023-02-11T15:49:26.900Z,47.05
2023-02-11T15:52:14.809Z,47.37
2023-02-11T15:55:02.822Z,47.59
2023-02-11T15:58:02.769Z,47.28
2023-02-11T16:00:54.651Z,47.31
2023-02-11T16:03:42.413Z,47.15
2023-02-11T16:06:38.528Z,47.41
2023-02-11T16:09:35.794Z,47.48
2023-02-11T16:12:30.159Z,47.53
2023-02-11T16:15:49.009Z,47.64
2023-02-11T16:18:39.006Z,47.69
2023-02-11T16:21:39.259Z,47.59
2023-02-11T16:24:28.470Z,47.77
2023-02-11T16:27:23.173Z,47.65
2023-02-11T16:30:32.046Z,47.92
2023-02-11T16:33:17.868Z,47.67
2023-02-11T16:36:13.683Z,47.93
2023-02-11T16:38:59.689Z,47.96
2023-02-11T16:41:44.982Z,48.04
2023-02-11T16:44:30.451Z,48.10
2023-02-11T16:47:27.524Z,47.81
2023-02-11T16:50:23.861Z,48.09
2023-02-11T16:53:11.703Z,47.95
2023-02-11T16:55:57.401Z,47.87
2023-02-11T16:58:45.205Z,47.78
2023-02-11T17:01:32.571Z,47.72
2023-02-11T17:04:26.726Z,47.96
2023-02-11T17:07:13.294Z,48.16
2023-02-11T17:09:59.395Z,48.21
2023-02-11T17:12:45.648Z,48.57
2023-02-11T17:15:32.166Z,47.96
2023-02-11T17:18:18.017Z,48.14
2023-02-11T17:21:06.887Z,47.96
2023-02-11T17:23:53.219Z,47.52
2023-02-11T17:26:39.376Z,47.72
2023-02-11T17:29:26.153Z,47.74
2023-02-11T17:32:11.640Z,47.37
2023-02-11T17:34:57.692Z,47.05
2023-02-11T17:37:43.289Z,46.91
2023-02-11T17:40:30.727Z,46.66
2023-02-11T17:43:17.640Z,46.16
2023-02-11T17:46:08.616Z,46.27
2023-02-11T17:48:55.442Z,46.44
2023-02-11T17:51:41.508Z,46.48
2023-02-11T17:54:27.172Z,46.57
2023-02-11T17:57:13.479Z,46.29
2023-02-11T18:00:00.614Z,46.44
2023-02-11T18:02:46.222Z,46.03
2023-02-11T18:05:36.623Z,45.80
2023-02-11T18:08:21.964Z,45.78
2023-02-11T18:11:10.424Z,45.29
2023-02-11T18:13:58.797Z,45.30
2023-02-11T18:16:46.765Z,44.96
2023-02-11T18:19:35.133Z,44.99
2023-02-11T18:22:20.396Z,45.04
2023-02-11T18:25:07.485Z,44.57
2023-02-11T18:27:52.937Z,44.52
2023-02-11T18:30:38.374Z,44.32
2023-02-11T18:33:24.468Z,44.45
2023-02-11T18:36:13.788Z,44.15
2023-02-11T18:39:00.887Z,43.73
2023-02-11T18:41:47.056Z,43.67
2023-02-11T18:44:32.944Z,43.65
2023-02-11T18:47:18.657Z,43.81
2023-02-11T18:50:06.791Z,44.42
2023-02-11T18:52:52.749Z,44.68
2023-02-11T18:55:40.138Z,44.56
2023-02-11T18:58:25.628Z,44.74
2023-02-11T19:01:17.673Z,44.38
2023-02-11T19:04:04.926Z,44.38
2023-02-11T20:15:23.086Z,44.59
2023-02-11T20:18:07.703Z,44.56
2023-02-11T20:20:52.532Z,44.30
2023-02-11T20:23:40.331Z,43.84
2023-02-11T20:26:28.753Z,43.55
2023-02-11T20:29:18.447Z,43.18
2023-02-11T20:32:05.428Z,43.42
2023-02-11T20:34:51.420Z,43.54
2023-02-11T20:37:36.670Z,43.31
2023-02-11T20:40:22.442Z,43.35
2023-02-11T20:43:07.745Z,43.34
2023-02-11T20:45:53.375Z,43.61
2023-02-11T20:48:39.089Z,43.52
2023-02-11T20:51:27.762Z,43.58
2023-02-11T20:54:18.772Z,43.79
2023-02-11T20:57:04.218Z,43.42
2023-02-11T20:59:49.631Z,43.36
2023-02-11T21:02:34.991Z,43.50
2023-02-11T21:05:21.046Z,43.39
2023-02-11T21:08:06.645Z,43.31
2023-02-11T21:10:52.667Z,43.23
2023-02-11T21:13:39.663Z,43.38
2023-02-11T21:16:25.175Z,43.20
2023-02-11T21:19:10.486Z,43.28
2023-02-11T21:21:57.310Z,43.28
2023-02-11T21:24:42.667Z,43.33
2023-02-11T21:27:32.993Z,43.31
2023-02-11T21:30:18.866Z,43.13
2023-02-11T21:33:04.793Z,43.17
2023-02-11T21:41:18.693Z,43.24
2023-02-11T21:44:04.263Z,43.32
2023-02-11T21:46:49.712Z,43.44
2023-02-11T21:49:34.801Z,43.45
2023-02-11T21:52:20.119Z,43.42
2023-02-11T21:55:05.924Z,43.46
2023-02-11T21:57:51.271Z,43.41
2023-02-11T22:00:36.657Z,43.48
2023-02-11T22:03:21.802Z,43.42
2023-02-11T22:06:15.296Z,43.53
2023-02-11T22:09:11.104Z,43.60
2023-02-11T22:11:56.704Z,43.33
2023-02-11T22:14:42.030Z,43.48
2023-02-11T22:17:27.214Z,43.47
2023-02-11T22:20:12.587Z,43.39
2023-02-11T22:22:58.489Z,43.46
2023-02-11T22:25:43.827Z,43.40
2023-02-11T22:28:30.037Z,43.37
2023-02-11T22:31:18.379Z,43.29
2023-02-11T22:34:05.071Z,43.43
2023-02-11T22:36:50.321Z,43.45
2023-02-11T22:39:35.461Z,43.53
2023-02-11T22:42:21.444Z,43.59
2023-02-11T22:45:07.453Z,43.43
2023-02-11T22:47:54.194Z,43.54
2023-02-11T22:50:39.657Z,43.48
2023-02-11T22:53:25.556Z,43.29
2023-02-11T22:56:15.135Z,43.41
2023-02-11T22:59:03.768Z,43.47
2023-02-11T23:01:49.768Z,43.53
2023-02-11T23:04:35.230Z,43.67
2023-02-11T23:07:20.553Z,43.50
2023-02-11T23:10:06.398Z,43.50
2023-02-11T23:12:51.800Z,43.65
2023-02-11T23:15:44.739Z,43.59
2023-02-11T23:18:30.006Z,43.65
2023-02-11T23:21:22.388Z,43.61
2023-02-11T23:24:11.886Z,43.74
2023-02-11T23:26:57.330Z,43.79
2023-02-11T23:29:42.614Z,43.69
2023-02-11T23:32:27.739Z,43.71
2023-02-11T23:35:18.461Z,43.66
2023-02-11T23:38:03.945Z,43.63
2023-02-11T23:40:49.085Z,43.73
2023-02-11T23:43:34.461Z,43.66
2023-02-11T23:46:21.883Z,43.70
2023-02-11T23:49:07.460Z,43.70
2023-02-11T23:51:52.671Z,43.55
2023-02-11T23:54:37.933Z,43.58
2023-02-11T23:57:23.441Z,43.73
